createdAt,value
2022-09-17T00:01:34.970Z,99047.34
2022-09-17T00:04:07.064Z,99048.91
2022-09-17T00:06:35.981Z,99053.34
2022-09-17T00:09:06.868Z,99052.25
2022-09-17T00:11:38.294Z,99065.59
2022-09-17T00:14:10.093Z,99068.78
2022-09-17T00:16:41.541Z,99079.28
2022-09-17T00:19:21.102Z,99078.78
2022-09-17T00:21:50.055Z,99073.09
2022-09-17T00:24:20.584Z,99070.16
2022-09-17T00:26:49.538Z,99064.06
2022-09-17T00:29:18.281Z,99056.41
2022-09-17T00:31:46.834Z,99051.22
2022-09-17T00:34:14.937Z,99047.56
2022-09-17T00:36:45.916Z,99046.59
2022-09-17T00:39:15.739Z,99029.38
2022-09-17T00:41:44.787Z,99026.59
2022-09-17T00:44:49.569Z,99019.22
2022-09-17T00:47:41.975Z,99004.13
2022-09-17T00:50:18.362Z,99015.47
2022-09-17T00:52:51.599Z,99018.59
2022-09-17T00:55:32.149Z,99021.03
2022-09-17T00:58:03.589Z,99019.44
2022-09-17T01:00:32.360Z,99016.72
2022-09-17T01:03:01.456Z,99018.03
2022-09-17T01:06:05.827Z,99010.81
2022-09-17T01:08:41.710Z,99002.53
2022-09-17T01:11:09.768Z,99014.47
2022-09-17T01:14:04.031Z,99027.75
2022-09-17T01:16:53.779Z,99025.69
2022-09-17T01:19:59.076Z,99019.06
2022-09-17T01:22:39.711Z,99014.91
2022-09-17T01:25:23.313Z,99007.28
2022-09-17T01:28:26.585Z,99006.09
2022-09-17T01:31:13.602Z,99010.94
2022-09-17T01:33:50.900Z,99015.84
2022-09-17T01:36:45.220Z,99017.28
2022-09-17T01:39:31.662Z,99028.94
2022-09-17T01:42:25.856Z,99032.94
2022-09-17T01:45:17.519Z,99028.44
2022-09-17T01:47:50.021Z,99027.34
2022-09-17T01:50:33.593Z,99021.22
2022-09-17T01:53:04.269Z,99026.66
2022-09-17T01:55:37.438Z,99026.00
2022-09-17T01:58:19.595Z,99028.47
2022-09-17T02:00:53.350Z,99028.41
2022-09-17T02:03:34.633Z,99025.97
2022-09-17T02:06:11.808Z,99029.22
2022-09-17T02:08:50.789Z,99031.47
2022-09-17T02:11:19.951Z,99034.56
2022-09-17T02:13:47.998Z,99026.06
2022-09-17T02:16:24.777Z,99022.53
2022-09-17T02:19:02.554Z,99016.31
2022-09-17T02:21:51.066Z,99016.38
2022-09-17T02:24:29.956Z,99020.00
2022-09-17T02:27:07.298Z,99037.66
2022-09-17T02:29:44.968Z,99027.56
2022-09-17T02:32:13.637Z,99012.72
2022-09-17T02:34:42.221Z,99010.72
2022-09-17T02:37:11.917Z,99011.41
2022-09-17T02:39:41.624Z,99008.97
2022-09-17T02:42:17.510Z,99006.38
2022-09-17T02:45:15.174Z,99007.16
2022-09-17T02:47:57.809Z,99008.41
2022-09-17T02:50:39.585Z,99014.09
2022-09-17T02:53:10.812Z,99007.09
2022-09-17T02:55:58.067Z,98999.81
2022-09-17T02:58:34.207Z,99005.41
2022-09-17T03:01:13.250Z,99009.66
2022-09-17T03:03:45.168Z,99010.41
2022-09-17T03:06:14.244Z,98998.97
2022-09-17T03:08:43.081Z,98990.75
2022-09-17T03:11:13.002Z,98984.75
2022-09-17T03:13:41.195Z,98983.28
2022-09-17T03:16:09.760Z,98975.38
2022-09-17T03:18:37.989Z,98977.63
2022-09-17T03:21:06.485Z,98974.88
2022-09-17T03:23:34.876Z,98963.87
2022-09-17T03:26:03.178Z,98959.19
2022-09-17T03:28:31.711Z,98951.31
2022-09-17T03:31:00.210Z,98950.56
2022-09-17T03:33:28.359Z,98944.94
2022-09-17T03:35:56.681Z,98922.38
2022-09-17T03:38:25.332Z,98923.28
2022-09-17T03:41:00.633Z,98913.94
2022-09-17T03:43:29.320Z,98899.25
2022-09-17T03:45:57.370Z,98894.91
2022-09-17T03:48:25.685Z,98894.16
2022-09-17T03:50:54.131Z,98892.84
2022-09-17T03:53:22.223Z,98890.25
2022-09-17T03:55:50.859Z,98892.47
2022-09-17T03:58:19.210Z,98897.63
2022-09-17T04:00:53.320Z,98904.69
2022-09-17T04:03:21.885Z,98911.16
2022-09-17T04:05:50.228Z,98913.88
2022-09-17T04:08:18.739Z,98908.84
2022-09-17T04:10:47.936Z,98910.53
2022-09-17T04:13:17.100Z,98899.75
2022-09-17T04:15:46.637Z,98906.03
2022-09-17T04:18:15.746Z,98916.91
2022-09-17T04:20:43.837Z,98913.50
2022-09-17T04:23:13.433Z,98921.94
2022-09-17T04:25:42.396Z,98919.66
2022-09-17T04:28:10.642Z,98926.59
2022-09-17T04:30:39.508Z,98919.06
2022-09-17T04:33:08.324Z,98905.47
2022-09-17T04:35:36.730Z,98895.47
2022-09-17T04:38:04.912Z,98887.50
2022-09-17T04:40:33.363Z,98877.41
2022-09-17T04:43:03.270Z,98874.44
2022-09-17T04:45:33.648Z,98890.47
2022-09-17T04:48:02.730Z,98885.78
2022-09-17T04:50:31.425Z,98888.94
2022-09-17T04:52:59.595Z,98883.25
2022-09-17T04:55:28.078Z,98898.31
2022-09-17T04:57:56.213Z,98887.69
2022-09-17T05:00:24.842Z,98886.25
2022-09-17T05:02:55.597Z,98888.84
2022-09-17T05:05:24.140Z,98892.97
2022-09-17T05:07:53.087Z,98905.66
2022-09-17T05:10:23.349Z,98914.28
2022-09-17T05:12:53.077Z,98905.09
2022-09-17T05:15:23.454Z,98908.97
2022-09-17T05:17:51.913Z,98910.78
2022-09-17T05:20:20.593Z,98919.66
2022-09-17T05:22:52.969Z,98915.47
2022-09-17T05:25:24.622Z,98925.13
2022-09-17T05:27:53.809Z,98920.81
2022-09-17T05:30:22.629Z,98925.59
2022-09-17T05:33:05.923Z,98923.56
2022-09-17T05:35:36.607Z,98917.63
2022-09-17T05:38:07.742Z,98916.81
2022-09-17T05:40:38.626Z,98921.06
2022-09-17T05:43:07.384Z,98928.69
2022-09-17T05:45:37.757Z,98933.75
2022-09-17T05:48:07.699Z,98927.44
2022-09-17T05:50:36.104Z,98926.28
2022-09-17T05:53:10.639Z,98936.28
2022-09-17T05:55:39.595Z,98946.97
2022-09-17T05:58:19.407Z,98955.72
2022-09-17T06:00:48.925Z,98956.87
2022-09-17T06:03:19.693Z,98955.53
2022-09-17T06:05:56.287Z,98947.38
2022-09-17T06:08:26.506Z,98949.81
2022-09-17T06:10:56.981Z,98962.44
2022-09-17T06:13:28.746Z,98955.31
2022-09-17T06:15:56.845Z,98955.19
2022-09-17T06:18:24.925Z,98952.34
2022-09-17T06:21:05.771Z,98954.56
2022-09-17T06:23:37.649Z,98954.72
2022-09-17T06:26:06.766Z,98956.00
2022-09-17T06:28:39.106Z,98965.00
2022-09-17T06:31:11.635Z,98962.41
2022-09-17T06:33:40.074Z,98963.31
2022-09-17T06:38:12.349Z,98963.91
2022-09-17T06:40:41.673Z,98972.91
2022-09-17T06:43:09.785Z,98981.91
2022-09-17T06:45:37.979Z,98977.59
2022-09-17T06:48:06.707Z,98979.78
2022-09-17T06:50:38.255Z,98985.50
2022-09-17T06:53:10.081Z,98998.38
2022-09-17T06:55:38.065Z,98991.19
2022-09-17T06:58:06.137Z,98988.88
2022-09-17T07:00:36.535Z,98998.12
2022-09-17T07:03:05.577Z,99008.47
2022-09-17T07:05:33.611Z,99002.16
2022-09-17T07:08:03.505Z,99002.63
2022-09-17T07:10:32.759Z,98999.19
2022-09-17T07:13:00.873Z,98995.34
2022-09-17T07:15:30.084Z,98989.09
2022-09-17T07:17:58.514Z,98988.91
2022-09-17T07:20:27.241Z,98990.53
2022-09-17T07:22:57.619Z,98990.34
2022-09-17T07:25:26.797Z,98978.59
2022-09-17T07:27:55.080Z,98983.03
2022-09-17T07:30:23.730Z,98980.13
2022-09-17T07:32:51.871Z,98972.59
2022-09-17T07:35:20.095Z,98972.41
2022-09-17T07:37:48.534Z,98978.97
2022-09-17T07:40:17.047Z,98974.69
2022-09-17T07:42:45.090Z,98978.38
2022-09-17T07:45:13.532Z,98994.00
2022-09-17T07:47:41.829Z,98984.84
2022-09-17T07:50:10.958Z,98992.50
2022-09-17T07:52:46.756Z,98997.28
2022-09-17T07:55:15.972Z,98998.19
2022-09-17T07:57:50.592Z,99001.41
2022-09-17T08:00:19.468Z,98999.56
2022-09-17T08:02:56.497Z,99003.16
2022-09-17T08:05:25.682Z,99007.97
2022-09-17T08:07:56.005Z,99016.50
2022-09-17T08:10:27.165Z,99011.03
2022-09-17T08:12:57.579Z,99019.53
2022-09-17T08:15:26.230Z,99014.91
2022-09-17T08:17:54.812Z,99015.47
2022-09-17T08:20:26.248Z,99025.00
2022-09-17T08:23:01.312Z,99027.50
2022-09-17T08:25:30.121Z,99028.16
2022-09-17T08:27:58.299Z,99041.88
2022-09-17T08:30:28.437Z,99036.88
2022-09-17T08:32:57.058Z,99039.34
2022-09-17T08:35:26.240Z,99041.44
2022-09-17T08:37:56.697Z,99048.78
2022-09-17T08:40:28.600Z,99046.00
2022-09-17T08:43:04.652Z,99038.34
2022-09-17T08:45:33.404Z,99030.81
2022-09-17T08:48:07.534Z,99013.47
2022-09-17T08:50:41.924Z,99006.50
2022-09-17T08:53:30.698Z,99020.94
2022-09-17T08:56:05.573Z,99010.28
2022-09-17T08:58:59.172Z,99013.78
2022-09-17T09:01:53.114Z,99006.22
2022-09-17T09:04:54.536Z,98999.78
2022-09-17T09:07:31.541Z,98997.72
2022-09-17T09:10:29.249Z,98996.34
2022-09-17T09:13:00.405Z,99012.72
2022-09-17T09:15:44.013Z,99024.13
2022-09-17T09:18:25.567Z,99030.53
2022-09-17T09:21:01.945Z,99034.06
2022-09-17T09:23:52.280Z,99030.09
2022-09-17T09:26:23.751Z,99036.28
2022-09-17T09:29:01.395Z,99036.16
2022-09-17T09:31:54.643Z,99038.66
2022-09-17T09:34:24.029Z,99034.56
2022-09-17T09:36:52.272Z,99034.97
2022-09-17T09:39:28.674Z,99027.22
2022-09-17T09:42:19.333Z,99023.34
2022-09-17T09:44:48.711Z,99022.88
2022-09-17T09:47:43.190Z,99024.38
2022-09-17T09:50:34.659Z,99019.38
2022-09-17T09:53:30.354Z,99018.63
2022-09-17T09:56:22.286Z,99034.19
2022-09-17T09:58:50.632Z,99037.00
2022-09-17T10:01:23.187Z,99037.84
2022-09-17T10:03:58.350Z,99036.16
2022-09-17T10:06:31.048Z,99018.78
2022-09-17T10:09:02.745Z,99019.41
2022-09-17T10:11:33.326Z,99022.47
2022-09-17T10:14:24.687Z,99020.34
2022-09-17T10:17:21.658Z,99010.84
2022-09-17T10:20:19.455Z,99017.56
2022-09-17T10:22:51.107Z,99013.34
2022-09-17T10:25:35.032Z,98995.84
2022-09-17T10:28:21.011Z,99009.03
2022-09-17T10:31:08.958Z,99005.59
2022-09-17T10:34:11.037Z,99006.03
2022-09-17T10:36:43.794Z,98980.84
2022-09-17T10:39:18.592Z,98975.19
2022-09-17T10:41:58.612Z,98967.44
2022-09-17T10:44:33.984Z,98969.41
2022-09-17T10:47:07.195Z,98976.03
2022-09-17T10:49:41.000Z,98986.44
2022-09-17T10:52:18.753Z,99005.22
2022-09-17T10:55:02.022Z,98994.28
2022-09-17T10:57:43.472Z,98978.28
2022-09-17T11:00:19.191Z,98956.37
2022-09-17T11:03:12.266Z,98936.09
2022-09-17T11:06:14.719Z,98930.44
2022-09-17T11:09:25.404Z,98919.34
2022-09-17T11:12:36.742Z,98926.97
2022-09-17T11:15:11.073Z,98923.75
2022-09-17T11:17:50.271Z,98916.13
2022-09-17T11:20:38.094Z,98927.59
2022-09-17T11:23:22.349Z,98940.09
2022-09-17T11:25:58.324Z,98930.09
2022-09-17T11:28:53.033Z,98939.16
2022-09-17T11:31:50.765Z,98937.72
2022-09-17T11:34:26.959Z,98943.72
2022-09-17T11:37:27.163Z,98952.13
2022-09-17T11:40:17.277Z,98954.44
2022-09-17T11:42:53.575Z,98955.44
2022-09-17T11:45:29.716Z,98922.81
2022-09-17T11:48:21.226Z,98929.09
2022-09-17T11:51:21.502Z,98939.75
2022-09-17T11:54:22.460Z,98941.59
2022-09-17T11:57:16.372Z,98945.38
2022-09-17T11:59:54.763Z,98924.41
2022-09-17T12:02:41.114Z,98912.78
2022-09-17T12:06:00.075Z,98898.84
2022-09-17T12:08:51.971Z,98881.34
2022-09-17T12:11:31.157Z,98888.19
2022-09-17T12:14:09.455Z,98879.31
2022-09-17T12:16:43.715Z,98880.16
2022-09-17T12:19:34.526Z,98858.00
2022-09-17T12:22:15.675Z,98856.34
2022-09-17T12:24:43.833Z,98850.06
2022-09-17T12:27:33.816Z,98846.66
2022-09-17T12:30:02.030Z,98849.72
2022-09-17T12:33:01.097Z,98829.94
2022-09-17T12:36:05.241Z,98816.00
2022-09-17T12:39:03.118Z,98819.09
2022-09-17T12:42:03.378Z,98811.22
2022-09-17T12:45:36.751Z,98821.06
2022-09-17T12:48:31.784Z,98802.72
2022-09-17T12:51:13.136Z,98812.75
2022-09-17T12:54:05.397Z,98800.84
2022-09-17T12:56:46.048Z,98790.75
2022-09-17T12:59:19.437Z,98783.72
2022-09-17T13:02:17.599Z,98788.13
2022-09-17T13:05:07.296Z,98815.97
2022-09-17T13:07:35.745Z,98834.28
2022-09-17T13:10:20.629Z,98836.66
2022-09-17T13:12:58.676Z,98848.16
2022-09-17T13:15:51.466Z,98849.13
2022-09-17T13:18:35.189Z,98847.31
2022-09-17T13:21:15.135Z,98827.13
2022-09-17T13:23:45.855Z,98825.16
2022-09-17T13:26:19.920Z,98845.06
2022-09-17T13:28:50.954Z,98840.00
2022-09-17T13:31:34.861Z,98825.13
2022-09-17T13:34:03.974Z,98828.94
2022-09-17T13:36:52.327Z,98825.53
2022-09-17T13:39:53.566Z,98822.91
2022-09-17T13:42:30.750Z,98812.63
2022-09-17T13:45:08.781Z,98795.69
2022-09-17T13:47:49.175Z,98782.41
2022-09-17T13:50:33.121Z,98774.72
2022-09-17T13:53:27.320Z,98774.91
2022-09-17T13:55:58.706Z,98771.69
2022-09-17T13:58:32.225Z,98775.56
2022-09-17T14:01:40.707Z,98792.00
2022-09-17T14:04:54.998Z,98780.72
2022-09-17T14:07:28.895Z,98772.66
2022-09-17T14:10:02.170Z,98762.00
2022-09-17T14:12:47.717Z,98775.84
2022-09-17T14:15:41.155Z,98781.25
2022-09-17T14:18:28.073Z,98780.28
2022-09-17T14:21:08.886Z,98784.22
2022-09-17T14:23:59.729Z,98785.28
2022-09-17T14:26:49.848Z,98789.97
2022-09-17T14:29:47.101Z,98795.94
2022-09-17T14:32:20.985Z,98795.34
2022-09-17T14:34:50.217Z,98806.34
2022-09-17T14:37:22.392Z,98809.00
2022-09-17T14:39:54.784Z,98804.97
2022-09-17T14:42:28.660Z,98814.97
2022-09-17T14:45:01.152Z,98823.75
2022-09-17T14:47:29.752Z,98829.47
2022-09-17T14:50:20.923Z,98831.91
2022-09-17T14:52:50.947Z,98830.72
2022-09-17T14:55:25.490Z,98836.28
2022-09-17T14:58:02.531Z,98831.03
2022-09-17T15:00:37.065Z,98817.59
2022-09-17T15:03:06.241Z,98812.13
2022-09-17T15:05:40.976Z,98811.87
2022-09-17T15:08:15.566Z,98745.44
2022-09-17T15:11:09.747Z,98812.87
2022-09-17T15:14:00.388Z,98819.34
2022-09-17T15:16:30.784Z,98823.50
2022-09-17T15:19:01.612Z,98820.09
2022-09-17T15:21:35.871Z,98815.66
2022-09-17T15:24:41.910Z,98811.47
2022-09-17T15:27:29.689Z,98817.03
2022-09-17T15:30:20.311Z,98812.06
2022-09-17T15:32:54.681Z,98815.12
2022-09-17T15:35:28.325Z,98806.63
2022-09-17T15:40:47.937Z,98788.38
2022-09-17T15:43:28.041Z,98787.72
2022-09-17T15:45:58.289Z,98788.16
2022-09-17T15:48:37.365Z,98775.78
2022-09-17T15:51:15.368Z,98787.03
2022-09-17T15:53:55.109Z,98776.22
2022-09-17T15:56:35.914Z,98763.38
2022-09-17T15:59:05.655Z,98736.00
2022-09-17T16:01:36.845Z,98740.88
2022-09-17T16:04:18.054Z,98740.38
2022-09-17T16:06:56.650Z,98723.75
2022-09-17T16:09:49.940Z,98734.16
2022-09-17T16:12:23.606Z,98749.00
2022-09-17T16:14:54.293Z,98739.69
2022-09-17T16:17:32.941Z,98741.66
2022-09-17T16:20:25.433Z,98736.06
2022-09-17T16:22:54.863Z,98752.09
2022-09-17T16:25:25.975Z,98741.78
2022-09-17T16:28:08.319Z,98732.97
2022-09-17T16:30:45.453Z,98734.16
2022-09-17T16:33:15.302Z,98733.16
2022-09-17T16:35:44.037Z,98726.09
2022-09-17T16:38:12.993Z,98723.75
2022-09-17T16:40:45.244Z,98714.28
2022-09-17T16:43:13.697Z,98707.63
2022-09-17T16:45:41.700Z,98713.22
2022-09-17T16:48:10.657Z,98720.28
2022-09-17T16:50:41.432Z,98713.63
2022-09-17T16:53:09.871Z,98716.44
2022-09-17T16:55:38.714Z,98728.50
2022-09-17T16:58:07.166Z,98730.88
2022-09-17T17:00:37.300Z,98752.81
2022-09-17T17:03:05.484Z,98756.31
2022-09-17T17:05:36.891Z,98744.00
2022-09-17T17:08:06.840Z,98747.78
2022-09-17T17:10:38.408Z,98738.50
2022-09-17T17:13:06.717Z,98731.38
2022-09-17T17:15:34.858Z,98758.59
2022-09-17T17:18:03.753Z,98767.00
2022-09-17T17:20:34.534Z,98758.09
2022-09-17T17:23:03.756Z,98743.97
2022-09-17T17:25:32.612Z,98745.13
2022-09-17T17:28:01.179Z,98746.50
2022-09-17T17:30:34.733Z,98741.88
2022-09-17T17:33:04.203Z,98742.44
2022-09-17T17:35:32.674Z,98729.66
2022-09-17T17:38:00.700Z,98744.94
2022-09-17T17:40:29.558Z,98748.72
2022-09-17T17:42:57.952Z,98742.84
2022-09-17T17:45:26.034Z,98742.75
2022-09-17T17:47:55.034Z,98748.78
2022-09-17T17:50:25.139Z,98744.09
2022-09-17T17:52:56.387Z,98750.56
2022-09-17T17:55:26.494Z,98745.81
2022-09-17T17:58:01.398Z,98753.38
2022-09-17T18:00:34.342Z,98755.75
2022-09-17T18:03:02.908Z,98768.50
2022-09-17T18:05:31.301Z,98785.16
2022-09-17T18:07:59.663Z,98781.97
2022-09-17T18:10:28.271Z,98779.56
2022-09-17T18:12:56.485Z,98792.69
2022-09-17T18:15:24.646Z,98789.50
2022-09-17T18:17:54.460Z,98797.72
2022-09-17T18:20:22.998Z,98812.19
2022-09-17T18:22:51.151Z,98808.72
2022-09-17T18:25:19.853Z,98807.34
2022-09-17T18:27:48.140Z,98820.59
2022-09-17T18:30:16.797Z,98800.25
2022-09-17T18:32:48.365Z,98802.50
2022-09-17T18:35:20.027Z,98799.25
2022-09-17T18:37:48.543Z,98803.75
2022-09-17T18:40:17.401Z,98799.25
2022-09-17T18:42:45.775Z,98793.47
2022-09-17T18:45:14.337Z,98794.50
2022-09-17T18:47:43.958Z,98803.75
2022-09-17T18:50:15.292Z,98807.09
2022-09-17T18:52:43.617Z,98813.88
2022-09-17T18:55:11.964Z,98815.91
2022-09-17T18:57:40.529Z,98814.56
2022-09-17T19:00:11.542Z,98807.28
2022-09-17T19:02:40.486Z,98802.44
2022-09-17T19:05:08.941Z,98806.84
2022-09-17T19:07:37.103Z,98806.41
2022-09-17T19:10:05.580Z,98804.47
2022-09-17T19:12:34.116Z,98804.66
2022-09-17T19:15:02.174Z,98797.63
2022-09-17T19:17:30.639Z,98803.34
2022-09-17T19:20:01.832Z,98803.16
2022-09-17T19:22:32.531Z,98801.19
2022-09-17T19:25:00.999Z,98796.75
2022-09-17T19:27:29.830Z,98810.47
2022-09-17T19:30:00.429Z,98808.19
2022-09-17T19:32:29.155Z,98810.81
2022-09-17T19:34:57.311Z,98830.31
2022-09-17T19:37:25.349Z,98843.94
2022-09-17T19:39:54.325Z,98844.91
2022-09-17T19:42:23.477Z,98840.53
2022-09-17T19:44:51.629Z,98831.69
2022-09-17T19:47:20.335Z,98821.06
2022-09-17T19:49:52.235Z,98831.84
2022-09-17T19:52:21.032Z,98827.37
2022-09-17T19:54:49.280Z,98832.31
2022-09-17T19:57:17.329Z,98834.03
2022-09-17T19:59:48.804Z,98840.34
2022-09-17T20:02:17.149Z,98839.53
2022-09-17T20:04:46.884Z,98847.19
2022-09-17T20:07:15.247Z,98840.16
2022-09-17T20:09:43.490Z,98848.25
2022-09-17T20:12:12.031Z,98841.59
2022-09-17T20:14:40.405Z,98849.78
2022-09-17T20:17:08.945Z,98839.25
2022-09-17T20:19:37.799Z,98837.53
2022-09-17T20:22:06.197Z,98843.50
2022-09-17T20:24:35.340Z,98841.22
2022-09-17T20:27:03.875Z,98836.09
2022-09-17T20:29:35.200Z,98831.62
2022-09-17T20:32:03.632Z,98840.78
2022-09-17T20:34:31.923Z,98842.41
2022-09-17T20:37:12.644Z,98843.59
2022-09-17T20:39:42.537Z,98841.78
2022-09-17T20:42:10.844Z,98848.97
2022-09-17T20:44:38.863Z,98848.25
2022-09-17T20:47:07.241Z,98854.47
2022-09-17T20:49:35.732Z,98869.59
2022-09-17T20:52:04.477Z,98865.72
2022-09-17T20:54:33.049Z,98868.50
2022-09-17T20:57:01.516Z,98877.84
2022-09-17T20:59:50.305Z,98862.09
2022-09-17T21:02:22.291Z,98875.06
2022-09-17T21:04:50.383Z,98875.69
2022-09-17T21:07:18.906Z,98870.94
2022-09-17T21:09:48.918Z,98876.97
2022-09-17T21:12:16.993Z,98872.19
2022-09-17T21:14:45.541Z,98874.91
2022-09-17T21:17:13.738Z,98874.72
2022-09-17T21:19:42.506Z,98866.06
2022-09-17T21:22:10.900Z,98876.16
2022-09-17T21:24:39.309Z,98883.81
2022-09-17T21:27:07.377Z,98880.91
2022-09-17T21:29:35.897Z,98878.84
2022-09-17T21:32:04.215Z,98884.00
2022-09-17T21:34:32.218Z,98887.31
2022-09-17T21:37:03.700Z,98901.06
2022-09-17T21:39:35.554Z,98892.25
2022-09-17T21:42:03.966Z,98891.25
2022-09-17T21:44:32.220Z,98890.09
2022-09-17T21:47:00.558Z,98884.16
2022-09-17T21:49:28.973Z,98891.34
2022-09-17T21:51:57.168Z,98895.22
2022-09-17T21:54:25.155Z,98895.13
2022-09-17T21:56:53.669Z,98890.38
2022-09-17T21:59:21.993Z,98899.62
2022-09-17T22:01:50.591Z,98898.19
2022-09-17T22:04:22.133Z,98894.50
2022-09-17T22:06:50.741Z,98889.44
2022-09-17T22:09:22.237Z,98896.44
2022-09-17T22:11:51.096Z,98895.63
2022-09-17T22:14:22.080Z,98893.81
2022-09-17T22:16:53.607Z,98895.91
2022-09-17T22:19:23.586Z,98906.41
2022-09-17T22:21:54.012Z,98900.97
2022-09-17T22:24:23.460Z,98902.47
2022-09-17T22:26:57.353Z,98889.63
2022-09-17T22:29:26.952Z,98899.25
2022-09-17T22:31:55.061Z,98906.06
2022-09-17T22:34:23.807Z,98903.19
2022-09-17T22:36:52.239Z,98905.84
2022-09-17T22:39:21.682Z,98910.87
2022-09-17T22:41:50.601Z,98902.28
2022-09-17T22:44:20.292Z,98905.13
2022-09-17T22:46:50.785Z,98911.50
2022-09-17T22:49:20.327Z,98909.22
2022-09-17T22:51:48.714Z,98907.59
2022-09-17T22:54:18.721Z,98909.59
2022-09-17T22:56:48.282Z,98922.59
2022-09-17T22:59:18.169Z,98919.66
2022-09-17T23:01:47.185Z,98916.19
2022-09-17T23:04:15.399Z,98923.88
2022-09-17T23:06:44.145Z,98923.94
2022-09-17T23:09:13.912Z,98921.50
2022-09-17T23:11:42.797Z,98924.59
2022-09-17T23:14:12.871Z,98921.75
2022-09-17T23:16:47.041Z,98928.03
2022-09-17T23:19:17.524Z,98931.31
2022-09-17T23:21:46.419Z,98925.31
2022-09-17T23:24:20.432Z,98931.03
2022-09-17T23:26:49.920Z,98934.13
2022-09-17T23:29:18.391Z,98927.47
2022-09-17T23:31:46.679Z,98923.38
2022-09-17T23:34:15.130Z,98933.50
2022-09-17T23:36:43.229Z,98920.13
2022-09-17T23:39:12.128Z,98921.59
2022-09-17T23:41:44.842Z,98913.97
2022-09-17T23:44:15.664Z,98919.16
2022-09-17T23:46:46.340Z,98929.59
2022-09-17T23:49:15.394Z,98928.47
2022-09-17T23:51:44.364Z,98922.44
2022-09-17T23:54:12.764Z,98920.19
2022-09-17T23:56:41.298Z,98920.97
2022-09-17T23:59:10.067Z,98928.28
